createdAt,value
2023-04-02T00:01:07.919Z,17.83
2023-04-02T00:06:40.660Z,18.50
2023-04-02T00:11:46.865Z,20.30
2023-04-02T00:16:53.015Z,18.13
2023-04-02T00:21:58.579Z,17.90
2023-04-02T00:27:02.405Z,19.80
2023-04-02T00:32:07.356Z,18.35
2023-04-02T00:37:23.824Z,16.15
2023-04-02T00:42:27.965Z,12.52
2023-04-02T00:47:37.999Z,17.60
2023-04-02T00:52:45.311Z,14.43
2023-04-02T00:57:50.984Z,15.75
2023-04-02T01:03:29.974Z,14.98
2023-04-02T01:08:45.587Z,15.82
2023-04-02T01:13:57.079Z,12.85
2023-04-02T01:19:13.771Z,15.57
2023-04-02T01:24:17.433Z,15.65
2023-04-02T01:29:25.288Z,15.55
2023-04-02T01:34:31.076Z,15.45
2023-04-02T01:39:48.052Z,13.43
2023-04-02T01:44:54.538Z,13.50
2023-04-02T01:50:02.243Z,14.13
2023-04-02T01:55:08.698Z,13.50
2023-04-02T02:00:17.000Z,13.68
2023-04-02T02:05:23.087Z,13.43
2023-04-02T02:10:29.338Z,12.63
2023-04-02T02:15:35.315Z,12.27
2023-04-02T02:20:38.758Z,12.55
2023-04-02T02:25:42.865Z,10.60
2023-04-02T02:30:51.905Z,12.40
2023-04-02T02:36:00.791Z,11.90
2023-04-02T02:41:09.031Z,12.30
2023-04-02T02:46:19.393Z,12.88
2023-04-02T02:51:28.467Z,13.25
2023-04-02T02:56:37.001Z,10.77
2023-04-02T03:01:42.331Z,11.15
2023-04-02T03:06:50.350Z,11.65
2023-04-02T03:11:59.373Z,10.35
2023-04-02T03:17:12.113Z,12.43
2023-04-02T03:22:20.646Z,12.63
2023-04-02T03:27:27.665Z,10.82
2023-04-02T03:32:36.090Z,11.93
2023-04-02T03:37:43.030Z,11.70
2023-04-02T03:42:50.640Z,11.73
2023-04-02T03:48:00.993Z,11.32
2023-04-02T03:53:05.177Z,12.05
2023-04-02T03:58:15.093Z,11.52
2023-04-02T04:03:23.603Z,11.27
2023-04-02T04:08:32.960Z,12.30
2023-04-02T04:13:43.037Z,11.90
2023-04-02T04:18:57.197Z,13.18
2023-04-02T04:24:05.005Z,12.80
2023-04-02T04:29:18.172Z,13.38
2023-04-02T04:34:30.266Z,13.93
2023-04-02T04:39:43.699Z,13.93
2023-04-02T04:44:54.970Z,12.38
2023-04-02T04:50:04.978Z,15.93
2023-04-02T04:55:25.938Z,13.85
2023-04-02T05:00:41.104Z,15.15
2023-04-02T05:05:46.004Z,12.65
2023-04-02T05:10:53.563Z,13.88
2023-04-02T05:16:06.133Z,12.55
2023-04-02T05:21:20.384Z,13.00
2023-04-02T05:26:27.023Z,14.63
2023-04-02T05:31:39.765Z,14.45
2023-04-02T05:36:48.936Z,13.80
2023-04-02T05:42:02.042Z,15.80
2023-04-02T05:47:08.516Z,17.27
2023-04-02T05:52:18.977Z,15.23
2023-04-02T05:57:42.733Z,16.58
2023-04-02T06:02:55.035Z,17.85
2023-04-02T06:08:06.433Z,15.30
2023-04-02T06:13:12.482Z,13.27
2023-04-02T06:18:18.789Z,16.83
2023-04-02T06:23:31.094Z,12.15
2023-04-02T06:28:41.940Z,16.63
2023-04-02T06:33:45.288Z,15.30
2023-04-02T06:38:52.272Z,16.87
2023-04-02T06:43:59.088Z,18.40
2023-04-02T06:49:09.483Z,15.43
2023-04-02T06:54:17.916Z,18.65
2023-04-02T06:59:22.061Z,18.92
2023-04-02T07:04:25.926Z,18.30
2023-04-02T07:09:30.990Z,14.68
2023-04-02T07:14:35.160Z,14.38
2023-04-02T07:19:38.361Z,16.77
2023-04-02T07:24:43.037Z,17.65
2023-04-02T07:29:46.343Z,16.05
2023-04-02T07:34:49.715Z,15.80
2023-04-02T07:39:54.544Z,18.93
2023-04-02T07:44:57.989Z,20.38
2023-04-02T07:50:01.240Z,14.05
2023-04-02T07:55:07.183Z,19.10
2023-04-02T08:00:12.907Z,13.25
2023-04-02T08:05:16.302Z,15.23
2023-04-02T08:10:21.416Z,13.73
2023-04-02T08:15:25.206Z,14.20
2023-04-02T08:20:28.651Z,14.07
2023-04-02T08:25:33.609Z,16.58
2023-04-02T08:30:37.415Z,14.52
2023-04-02T08:35:40.839Z,14.68
2023-04-02T08:40:47.484Z,16.33
2023-04-02T08:46:00.762Z,14.95
2023-04-02T08:51:06.106Z,12.93
2023-04-02T08:56:18.049Z,13.15
2023-04-02T09:01:31.724Z,12.40
2023-04-02T09:06:35.458Z,10.40
2023-04-02T09:11:49.049Z,12.93
2023-04-02T09:16:55.098Z,11.40
2023-04-02T09:22:07.723Z,12.63
2023-04-02T09:27:21.094Z,11.75
2023-04-02T09:32:38.546Z,9.40
2023-04-02T09:37:42.422Z,12.90
2023-04-02T09:42:47.261Z,12.38
2023-04-02T09:47:51.603Z,14.85
2023-04-02T09:52:55.422Z,12.48
2023-04-02T09:58:17.176Z,14.93
2023-04-02T10:03:25.898Z,12.68
2023-04-02T10:08:29.402Z,11.43
2023-04-02T10:13:48.303Z,12.95
2023-04-02T10:18:56.024Z,12.80
2023-04-02T10:23:59.903Z,11.70
2023-04-02T10:29:27.640Z,9.93
2023-04-02T10:34:43.013Z,11.15
2023-04-02T10:39:51.679Z,13.38
2023-04-02T10:45:03.158Z,12.25
2023-04-02T10:50:22.519Z,12.40
2023-04-02T10:55:30.085Z,11.65
2023-04-02T11:00:38.685Z,11.90
2023-04-02T11:05:45.051Z,12.20
2023-04-02T11:10:52.210Z,11.75
2023-04-02T11:15:57.300Z,12.02
2023-04-02T11:21:06.551Z,11.18
2023-04-02T11:26:44.783Z,7.97
2023-04-02T11:31:51.710Z,11.85
2023-04-02T11:37:03.577Z,11.75
2023-04-02T11:42:22.731Z,10.85
2023-04-02T11:47:28.205Z,11.52
2023-04-02T11:52:39.202Z,10.13
2023-04-02T11:58:05.066Z,11.50
2023-04-02T12:03:32.437Z,12.13
2023-04-02T12:08:57.731Z,10.50
2023-04-02T12:14:02.520Z,11.68
2023-04-02T12:19:10.678Z,11.52
2023-04-02T12:24:20.891Z,10.68
2023-04-02T12:29:28.899Z,10.52
2023-04-02T12:34:33.843Z,11.93
2023-04-02T12:39:37.508Z,11.07
2023-04-02T12:44:50.275Z,11.23
2023-04-02T12:49:55.878Z,12.40
2023-04-02T12:55:01.480Z,10.80
2023-04-02T13:00:31.881Z,11.88
2023-04-02T13:05:41.551Z,11.43
2023-04-02T13:10:45.906Z,10.55
2023-04-02T13:16:03.738Z,10.05
2023-04-02T13:21:24.217Z,8.95
2023-04-02T13:26:29.376Z,9.57
2023-04-02T13:31:34.032Z,8.98
2023-04-02T13:36:38.890Z,9.20
2023-04-02T13:41:45.228Z,8.48
2023-04-02T13:46:48.864Z,8.85
2023-04-02T13:51:55.283Z,9.88
2023-04-02T13:56:59.616Z,8.85
2023-04-02T14:02:07.776Z,8.15
2023-04-02T14:07:41.404Z,8.57
2023-04-02T14:13:00.828Z,8.40
2023-04-02T14:18:30.931Z,8.57
2023-04-02T14:23:51.491Z,8.30
2023-04-02T14:29:04.601Z,8.85
2023-04-02T14:34:16.850Z,8.40
2023-04-02T14:39:29.762Z,8.23
2023-04-02T14:49:44.091Z,9.27
2023-04-02T14:54:54.630Z,9.20
2023-04-02T15:00:04.014Z,6.43
2023-04-02T15:05:17.762Z,5.45
2023-04-02T15:10:27.689Z,6.60
2023-04-02T15:15:41.071Z,5.20
2023-04-02T15:20:56.274Z,5.78
2023-04-02T15:26:12.818Z,5.32
2023-04-02T15:31:16.612Z,5.93
2023-04-02T15:36:40.188Z,5.72
2023-04-02T15:41:58.057Z,6.03
2023-04-02T15:47:10.451Z,7.40
2023-04-02T15:52:18.835Z,9.20
2023-04-02T15:57:41.802Z,7.47
2023-04-02T16:03:02.667Z,7.63
2023-04-02T16:08:29.224Z,8.20
2023-04-02T16:13:35.819Z,9.35
2023-04-02T16:18:48.549Z,9.95
2023-04-02T16:23:52.184Z,9.02
2023-04-02T16:29:09.551Z,8.63
2023-04-02T16:34:20.097Z,7.65
2023-04-02T16:39:34.685Z,9.10
2023-04-02T16:44:53.420Z,9.00
2023-04-02T16:50:01.110Z,9.43
2023-04-02T16:55:23.701Z,8.23
2023-04-02T17:00:37.867Z,7.97
2023-04-02T17:05:52.674Z,7.70
2023-04-02T17:11:02.206Z,6.93
2023-04-02T17:16:18.511Z,6.35
2023-04-02T17:21:32.520Z,7.50
2023-04-02T17:26:39.153Z,8.27
2023-04-02T17:31:46.847Z,9.65
2023-04-02T17:36:58.713Z,9.27
2023-04-02T17:42:11.492Z,8.85
2023-04-02T17:47:23.968Z,8.60
2023-04-02T17:52:36.048Z,7.65
2023-04-02T17:57:55.427Z,7.57
2023-04-02T18:03:21.707Z,8.13
2023-04-02T18:08:33.652Z,7.65
2023-04-02T18:13:40.896Z,8.53
2023-04-02T18:19:10.178Z,8.52
2023-04-02T18:24:42.763Z,8.13
2023-04-02T18:29:57.232Z,8.30
2023-04-02T18:35:10.270Z,8.20
2023-04-02T18:40:32.444Z,8.10
2023-04-02T18:45:44.506Z,8.18
2023-04-02T18:50:50.206Z,7.55
2023-04-02T18:55:57.904Z,8.55
2023-04-02T19:01:03.035Z,8.45
2023-04-02T19:06:13.780Z,8.60
2023-04-02T19:11:20.588Z,8.32
2023-04-02T19:16:51.273Z,7.82
2023-04-02T19:22:14.045Z,7.97
2023-04-02T19:27:27.611Z,8.02
2023-04-02T19:32:40.374Z,8.55
2023-04-02T19:37:55.831Z,8.43
2023-04-02T19:42:59.461Z,8.50
2023-04-02T19:48:10.963Z,9.20
2023-04-02T19:53:16.791Z,7.88
2023-04-02T19:58:27.308Z,8.18
2023-04-02T20:03:32.564Z,7.43
2023-04-02T20:08:38.594Z,7.75
2023-04-02T20:13:43.116Z,6.93
2023-04-02T20:18:47.947Z,8.75
2023-04-02T20:23:55.749Z,8.38
2023-04-02T20:28:59.471Z,7.43
2023-04-02T20:34:05.300Z,8.65
2023-04-02T20:39:12.118Z,8.13
2023-04-02T20:44:15.548Z,7.88
2023-04-02T20:49:18.811Z,8.85
2023-04-02T20:54:23.617Z,8.20
2023-04-02T20:59:27.332Z,8.88
2023-04-02T21:04:30.575Z,8.95
2023-04-02T21:09:36.068Z,7.93
2023-04-02T21:14:40.171Z,8.10
2023-04-02T21:19:43.471Z,8.18
2023-04-02T21:24:48.187Z,9.07
2023-04-02T21:29:51.636Z,8.35
2023-04-02T21:34:55.500Z,9.00
2023-04-02T21:40:00.033Z,7.90
2023-04-02T21:45:03.909Z,8.23
2023-04-02T21:50:08.704Z,8.07
2023-04-02T21:55:13.497Z,8.27
2023-04-02T22:00:17.791Z,7.88
2023-04-02T22:05:21.039Z,8.68
2023-04-02T22:10:26.098Z,8.80
2023-04-02T22:15:29.506Z,9.02
2023-04-02T22:20:33.028Z,8.43
2023-04-02T22:25:38.231Z,8.25
2023-04-02T22:30:41.692Z,8.57
2023-04-02T22:35:45.057Z,9.10
2023-04-02T22:40:49.717Z,8.30
2023-04-02T22:45:52.910Z,8.55
2023-04-02T22:50:56.136Z,9.45
2023-04-02T22:56:06.694Z,9.00
2023-04-02T23:01:13.548Z,8.60
2023-04-02T23:06:19.218Z,9.05
2023-04-02T23:11:26.072Z,8.75
2023-04-02T23:16:30.804Z,8.80
2023-04-02T23:21:34.143Z,9.40
2023-04-02T23:26:38.758Z,7.40
2023-04-02T23:31:42.035Z,8.95
2023-04-02T23:36:45.405Z,8.68
2023-04-02T23:41:50.716Z,7.90
2023-04-02T23:46:54.407Z,8.45
2023-04-02T23:51:57.785Z,10.40
2023-04-02T23:57:02.688Z,9.77
